sensor_id;sensor_type;location;lat;lon;timestamp;pressure;altitude;pressure_sealevel;temperature;humidity
52935;BME280;38802;50.198;19.796;2023-03-21T00:02:19;96092.17;;;7.47;89.27
52935;BME280;38802;50.198;19.796;2023-03-21T00:04:47;96093.24;;;7.46;89.23
52935;BME280;38802;50.198;19.796;2023-03-21T00:07:20;96089.04;;;7.45;89.18
52935;BME280;38802;50.198;19.796;2023-03-21T00:09:48;96084.66;;;7.43;89.17
52935;BME280;38802;50.198;19.796;2023-03-21T00:12:16;96086.73;;;7.43;89.05
52935;BME280;38802;50.198;19.796;2023-03-21T00:14:47;96081.17;;;7.43;88.99
52935;BME280;38802;50.198;19.796;2023-03-21T00:17:15;96082.04;;;7.43;89.30
52935;BME280;38802;50.198;19.796;2023-03-21T00:19:43;96078.63;;;7.40;89.08
52935;BME280;38802;50.198;19.796;2023-03-21T00:22:13;96077.48;;;7.40;89.22
52935;BME280;38802;50.198;19.796;2023-03-21T00:24:41;96073.64;;;7.37;89.19
52935;BME280;38802;50.198;19.796;2023-03-21T00:27:09;96068.90;;;7.36;89.40
52935;BME280;38802;50.198;19.796;2023-03-21T00:29:57;96069.77;;;7.34;89.20
52935;BME280;38802;50.198;19.796;2023-03-21T00:32:25;96067.70;;;7.31;89.33
52935;BME280;38802;50.198;19.796;2023-03-21T00:34:53;96064.53;;;7.30;89.33
52935;BME280;38802;50.198;19.796;2023-03-21T00:37:41;96063.20;;;7.26;89.75
52935;BME280;38802;50.198;19.796;2023-03-21T00:40:11;96062.55;;;7.23;89.70
52935;BME280;38802;50.198;19.796;2023-03-21T00:42:53;96059.86;;;7.22;89.74
52935;BME280;38802;50.198;19.796;2023-03-21T00:45:21;96057.85;;;7.21;90.14
52935;BME280;38802;50.198;19.796;2023-03-21T00:47:49;96055.50;;;7.20;90.47
52935;BME280;38802;50.198;19.796;2023-03-21T00:50:18;96055.56;;;7.17;90.57
52935;BME280;38802;50.198;19.796;2023-03-21T00:52:46;96054.48;;;7.15;90.85
52935;BME280;38802;50.198;19.796;2023-03-21T00:55:16;96057.84;;;7.14;91.04
52935;BME280;38802;50.198;19.796;2023-03-21T00:57:44;96054.82;;;7.13;90.75
52935;BME280;38802;50.198;19.796;2023-03-21T01:00:19;96056.48;;;7.12;90.80
52935;BME280;38802;50.198;19.796;2023-03-21T01:02:48;96051.27;;;7.12;91.13
52935;BME280;38802;50.198;19.796;2023-03-21T01:05:36;96050.98;;;7.11;91.14
52935;BME280;38802;50.198;19.796;2023-03-21T01:08:24;96050.85;;;7.11;91.39
52935;BME280;38802;50.198;19.796;2023-03-21T01:11:05;96047.14;;;7.09;91.40
52935;BME280;38802;50.198;19.796;2023-03-21T01:13:34;96050.23;;;7.10;91.53
52935;BME280;38802;50.198;19.796;2023-03-21T01:16:08;96052.09;;;7.10;91.74
52935;BME280;38802;50.198;19.796;2023-03-21T01:18:58;96056.75;;;7.13;91.89
52935;BME280;38802;50.198;19.796;2023-03-21T01:21:26;96057.98;;;7.10;91.63
52935;BME280;38802;50.198;19.796;2023-03-21T01:23:54;96058.41;;;7.11;91.57
52935;BME280;38802;50.198;19.796;2023-03-21T01:26:22;96056.02;;;7.13;91.48
52935;BME280;38802;50.198;19.796;2023-03-21T01:28:50;96057.11;;;7.15;91.57
52935;BME280;38802;50.198;19.796;2023-03-21T01:31:19;96057.16;;;7.17;91.55
52935;BME280;38802;50.198;19.796;2023-03-21T01:33:47;96058.63;;;7.18;91.50
52935;BME280;38802;50.198;19.796;2023-03-21T01:36:19;96055.29;;;7.18;91.80
52935;BME280;38802;50.198;19.796;2023-03-21T01:38:53;96054.77;;;7.18;91.55
52935;BME280;38802;50.198;19.796;2023-03-21T01:41:38;96050.38;;;7.19;91.88
52935;BME280;38802;50.198;19.796;2023-03-21T01:44:27;96054.35;;;7.19;91.90
52935;BME280;38802;50.198;19.796;2023-03-21T01:46:55;96055.55;;;7.20;91.86
52935;BME280;38802;50.198;19.796;2023-03-21T01:49:43;96045.83;;;7.20;91.78
52935;BME280;38802;50.198;19.796;2023-03-21T01:52:23;96045.84;;;7.22;91.98
52935;BME280;38802;50.198;19.796;2023-03-21T01:55:09;96047.77;;;7.22;92.22
52935;BME280;38802;50.198;19.796;2023-03-21T01:57:48;96045.58;;;7.21;92.41
52935;BME280;38802;50.198;19.796;2023-03-21T02:00:39;96048.77;;;7.22;92.74
52935;BME280;38802;50.198;19.796;2023-03-21T02:03:16;96048.27;;;7.20;92.41
52935;BME280;38802;50.198;19.796;2023-03-21T02:06:17;96047.95;;;7.22;92.74
52935;BME280;38802;50.198;19.796;2023-03-21T02:08:47;96048.16;;;7.21;92.70
52935;BME280;38802;50.198;19.796;2023-03-21T02:11:16;96046.96;;;7.21;92.38
52935;BME280;38802;50.198;19.796;2023-03-21T02:13:46;96046.51;;;7.23;92.51
52935;BME280;38802;50.198;19.796;2023-03-21T02:16:25;96043.61;;;7.25;92.60
52935;BME280;38802;50.198;19.796;2023-03-21T02:19:02;96042.35;;;7.25;92.97
52935;BME280;38802;50.198;19.796;2023-03-21T02:27:14;96043.90;;;7.21;92.66
52935;BME280;38802;50.198;19.796;2023-03-21T02:35:23;96040.54;;;7.27;92.90
52935;BME280;38802;50.198;19.796;2023-03-21T02:38:03;96042.77;;;7.24;92.54
52935;BME280;38802;50.198;19.796;2023-03-21T02:40:42;96037.37;;;7.25;92.54
52935;BME280;38802;50.198;19.796;2023-03-21T02:46:05;96036.17;;;7.25;93.07
52935;BME280;38802;50.198;19.796;2023-03-21T02:48:38;96036.92;;;7.24;92.98
52935;BME280;38802;50.198;19.796;2023-03-21T02:51:21;96037.27;;;7.22;92.87
52935;BME280;38802;50.198;19.796;2023-03-21T02:54:00;96039.52;;;7.21;92.61
52935;BME280;38802;50.198;19.796;2023-03-21T02:56:52;96042.34;;;7.23;92.60
52935;BME280;38802;50.198;19.796;2023-03-21T02:59:26;96040.50;;;7.25;92.84
52935;BME280;38802;50.198;19.796;2023-03-21T03:01:55;96045.97;;;7.26;92.79
52935;BME280;38802;50.198;19.796;2023-03-21T03:04:26;96051.27;;;7.24;92.92
52935;BME280;38802;50.198;19.796;2023-03-21T03:24:17;96053.06;;;7.25;93.08
52935;BME280;38802;50.198;19.796;2023-03-21T03:29:21;96056.89;;;7.28;92.89
52935;BME280;38802;50.198;19.796;2023-03-21T03:31:57;96055.95;;;7.29;92.83
52935;BME280;38802;50.198;19.796;2023-03-21T03:34:32;96052.48;;;7.29;92.66
52935;BME280;38802;50.198;19.796;2023-03-21T03:37:09;96051.89;;;7.30;92.55
52935;BME280;38802;50.198;19.796;2023-03-21T03:39:53;96051.77;;;7.29;92.42
52935;BME280;38802;50.198;19.796;2023-03-21T03:42:28;96048.44;;;7.30;92.75
52935;BME280;38802;50.198;19.796;2023-03-21T03:45:09;96045.16;;;7.32;92.73
52935;BME280;38802;50.198;19.796;2023-03-21T03:47:47;96043.44;;;7.34;92.56
52935;BME280;38802;50.198;19.796;2023-03-21T03:50:29;96043.35;;;7.36;92.38
52935;BME280;38802;50.198;19.796;2023-03-21T03:53:06;96037.07;;;7.36;92.23
52935;BME280;38802;50.198;19.796;2023-03-21T03:55:46;96038.55;;;7.40;92.41
52935;BME280;38802;50.198;19.796;2023-03-21T03:58:17;96040.01;;;7.41;92.34
52935;BME280;38802;50.198;19.796;2023-03-21T04:00:53;96039.16;;;7.48;92.76
52935;BME280;38802;50.198;19.796;2023-03-21T04:03:22;96037.41;;;7.53;92.46
52935;BME280;38802;50.198;19.796;2023-03-21T04:05:51;96038.80;;;7.51;92.28
52935;BME280;38802;50.198;19.796;2023-03-21T04:08:20;96039.73;;;7.48;92.21
52935;BME280;38802;50.198;19.796;2023-03-21T04:10:52;96039.83;;;7.44;92.31
52935;BME280;38802;50.198;19.796;2023-03-21T04:13:22;96036.82;;;7.40;92.30
52935;BME280;38802;50.198;19.796;2023-03-21T04:16:01;96037.54;;;7.42;92.34
52935;BME280;38802;50.198;19.796;2023-03-21T04:18:30;96039.16;;;7.43;92.30
52935;BME280;38802;50.198;19.796;2023-03-21T04:21:16;96040.41;;;7.41;92.14
52935;BME280;38802;50.198;19.796;2023-03-21T04:23:45;96039.53;;;7.39;92.26
52935;BME280;38802;50.198;19.796;2023-03-21T04:26:13;96040.96;;;7.38;92.41
52935;BME280;38802;50.198;19.796;2023-03-21T04:28:52;96042.64;;;7.33;92.19
52935;BME280;38802;50.198;19.796;2023-03-21T04:31:23;96043.09;;;7.30;92.40
52935;BME280;38802;50.198;19.796;2023-03-21T04:34:14;96043.36;;;7.26;92.29
52935;BME280;38802;50.198;19.796;2023-03-21T04:36:48;96043.86;;;7.24;92.29
52935;BME280;38802;50.198;19.796;2023-03-21T04:39:17;96048.77;;;7.20;92.49
52935;BME280;38802;50.198;19.796;2023-03-21T04:41:47;96051.14;;;7.16;92.42
52935;BME280;38802;50.198;19.796;2023-03-21T04:44:17;96048.23;;;7.14;92.48
52935;BME280;38802;50.198;19.796;2023-03-21T04:46:46;96047.48;;;7.10;92.74
52935;BME280;38802;50.198;19.796;2023-03-21T04:49:14;96046.55;;;7.06;92.53
52935;BME280;38802;50.198;19.796;2023-03-21T04:51:43;96043.86;;;7.02;92.78
52935;BME280;38802;50.198;19.796;2023-03-21T04:54:12;96048.80;;;6.99;92.41
52935;BME280;38802;50.198;19.796;2023-03-21T04:56:41;96044.91;;;6.97;92.83
52935;BME280;38802;50.198;19.796;2023-03-21T04:59:12;96043.73;;;6.94;92.87
52935;BME280;38802;50.198;19.796;2023-03-21T05:01:41;96043.41;;;6.91;92.61
52935;BME280;38802;50.198;19.796;2023-03-21T05:04:12;96043.17;;;6.92;92.66
52935;BME280;38802;50.198;19.796;2023-03-21T05:06:41;96043.44;;;6.93;92.49
52935;BME280;38802;50.198;19.796;2023-03-21T05:09:12;96041.60;;;6.92;92.52
52935;BME280;38802;50.198;19.796;2023-03-21T05:11:41;96041.65;;;6.92;92.41
52935;BME280;38802;50.198;19.796;2023-03-21T05:14:15;96046.53;;;6.91;92.59
52935;BME280;38802;50.198;19.796;2023-03-21T05:16:44;96051.27;;;6.90;92.55
52935;BME280;38802;50.198;19.796;2023-03-21T05:19:23;96058.13;;;6.88;92.57
52935;BME280;38802;50.198;19.796;2023-03-21T05:21:51;96056.10;;;6.87;92.51
52935;BME280;38802;50.198;19.796;2023-03-21T05:24:21;96058.04;;;6.89;92.54
52935;BME280;38802;50.198;19.796;2023-03-21T05:26:50;96060.48;;;6.91;92.49
52935;BME280;38802;50.198;19.796;2023-03-21T05:29:26;96061.09;;;6.90;92.53
52935;BME280;38802;50.198;19.796;2023-03-21T05:32:02;96060.06;;;6.90;92.78
52935;BME280;38802;50.198;19.796;2023-03-21T05:34:30;96060.60;;;6.87;92.83
52935;BME280;38802;50.198;19.796;2023-03-21T05:36:59;96063.89;;;6.87;92.57
52935;BME280;38802;50.198;19.796;2023-03-21T05:39:37;96064.01;;;6.86;92.63
52935;BME280;38802;50.198;19.796;2023-03-21T05:42:13;96063.83;;;6.86;92.63
52935;BME280;38802;50.198;19.796;2023-03-21T05:44:41;96058.55;;;6.87;92.57
52935;BME280;38802;50.198;19.796;2023-03-21T05:47:10;96061.98;;;6.87;92.64
52935;BME280;38802;50.198;19.796;2023-03-21T05:49:44;96064.29;;;6.86;92.77
52935;BME280;38802;50.198;19.796;2023-03-21T05:52:14;96063.15;;;6.88;92.64
52935;BME280;38802;50.198;19.796;2023-03-21T05:54:44;96067.66;;;6.88;92.79
52935;BME280;38802;50.198;19.796;2023-03-21T05:57:13;96068.35;;;6.85;92.66
52935;BME280;38802;50.198;19.796;2023-03-21T06:00:10;96074.67;;;6.86;92.83
52935;BME280;38802;50.198;19.796;2023-03-21T06:02:50;96074.43;;;6.85;92.79
52935;BME280;38802;50.198;19.796;2023-03-21T06:05:36;96074.88;;;6.86;92.93
52935;BME280;38802;50.198;19.796;2023-03-21T06:08:06;96075.46;;;6.87;92.84
52935;BME280;38802;50.198;19.796;2023-03-21T06:10:35;96076.38;;;6.89;92.83
52935;BME280;38802;50.198;19.796;2023-03-21T06:13:03;96079.08;;;6.90;93.01
52935;BME280;38802;50.198;19.796;2023-03-21T06:15:33;96076.36;;;6.89;93.03
52935;BME280;38802;50.198;19.796;2023-03-21T06:18:11;96075.63;;;6.87;93.01
52935;BME280;38802;50.198;19.796;2023-03-21T06:20:42;96078.05;;;6.90;93.19
52935;BME280;38802;50.198;19.796;2023-03-21T06:23:11;96077.06;;;6.91;93.32
52935;BME280;38802;50.198;19.796;2023-03-21T06:25:39;96081.08;;;6.91;93.50
52935;BME280;38802;50.198;19.796;2023-03-21T06:28:07;96082.98;;;6.88;93.48
52935;BME280;38802;50.198;19.796;2023-03-21T06:30:39;96080.88;;;6.89;93.33
52935;BME280;38802;50.198;19.796;2023-03-21T06:33:16;96082.89;;;6.90;93.48
52935;BME280;38802;50.198;19.796;2023-03-21T06:35:52;96078.80;;;6.91;93.69
52935;BME280;38802;50.198;19.796;2023-03-21T06:38:22;96076.31;;;6.92;93.65
52935;BME280;38802;50.198;19.796;2023-03-21T06:40:50;96078.08;;;6.95;93.78
52935;BME280;38802;50.198;19.796;2023-03-21T06:43:18;96078.17;;;6.98;93.74
52935;BME280;38802;50.198;19.796;2023-03-21T06:45:46;96079.04;;;7.05;93.73
52935;BME280;38802;50.198;19.796;2023-03-21T06:48:15;96077.16;;;7.15;93.96
52935;BME280;38802;50.198;19.796;2023-03-21T06:50:51;96077.89;;;7.21;93.92
52935;BME280;38802;50.198;19.796;2023-03-21T06:53:22;96078.93;;;7.29;94.06
52935;BME280;38802;50.198;19.796;2023-03-21T06:56:21;96079.19;;;7.33;94.10
52935;BME280;38802;50.198;19.796;2023-03-21T06:58:49;96077.09;;;7.35;94.37
52935;BME280;38802;50.198;19.796;2023-03-21T07:01:43;96076.73;;;7.35;94.23
52935;BME280;38802;50.198;19.796;2023-03-21T07:04:11;96076.77;;;7.37;94.29
52935;BME280;38802;50.198;19.796;2023-03-21T07:06:39;96073.73;;;7.41;94.38
52935;BME280;38802;50.198;19.796;2023-03-21T07:09:07;96080.81;;;7.48;94.27
52935;BME280;38802;50.198;19.796;2023-03-21T07:11:36;96077.83;;;7.51;94.38
52935;BME280;38802;50.198;19.796;2023-03-21T07:14:05;96085.71;;;7.52;94.06
52935;BME280;38802;50.198;19.796;2023-03-21T07:16:33;96091.79;;;7.52;94.12
52935;BME280;38802;50.198;19.796;2023-03-21T07:19:02;96094.90;;;7.52;94.28
52935;BME280;38802;50.198;19.796;2023-03-21T07:21:31;96096.70;;;7.46;94.32
52935;BME280;38802;50.198;19.796;2023-03-21T07:24:00;96096.62;;;7.40;93.97
52935;BME280;38802;50.198;19.796;2023-03-21T07:26:28;96097.92;;;7.39;93.89
52935;BME280;38802;50.198;19.796;2023-03-21T07:28:57;96099.41;;;7.40;94.05
52935;BME280;38802;50.198;19.796;2023-03-21T07:31:27;96095.63;;;7.40;93.93
52935;BME280;38802;50.198;19.796;2023-03-21T07:33:55;96094.95;;;7.39;93.96
52935;BME280;38802;50.198;19.796;2023-03-21T07:36:23;96097.05;;;7.39;93.96
52935;BME280;38802;50.198;19.796;2023-03-21T07:38:51;96092.54;;;7.39;94.01
52935;BME280;38802;50.198;19.796;2023-03-21T07:41:23;96094.88;;;7.40;93.95
52935;BME280;38802;50.198;19.796;2023-03-21T07:43:51;96094.27;;;7.39;93.80
52935;BME280;38802;50.198;19.796;2023-03-21T07:46:19;96094.63;;;7.37;93.87
52935;BME280;38802;50.198;19.796;2023-03-21T07:48:48;96098.46;;;7.34;93.98
52935;BME280;38802;50.198;19.796;2023-03-21T07:51:16;96098.29;;;7.31;93.84
52935;BME280;38802;50.198;19.796;2023-03-21T08:02:44;96106.79;;;7.33;93.83
52935;BME280;38802;50.198;19.796;2023-03-21T08:05:12;96111.29;;;7.31;93.78
52935;BME280;38802;50.198;19.796;2023-03-21T08:07:40;96110.91;;;7.31;93.70
52935;BME280;38802;50.198;19.796;2023-03-21T08:10:08;96114.34;;;7.31;93.58
52935;BME280;38802;50.198;19.796;2023-03-21T08:12:38;96111.72;;;7.32;93.52
52935;BME280;38802;50.198;19.796;2023-03-21T08:15:07;96114.29;;;7.32;93.61
52935;BME280;38802;50.198;19.796;2023-03-21T08:17:35;96114.91;;;7.31;93.55
52935;BME280;38802;50.198;19.796;2023-03-21T08:20:06;96119.16;;;7.31;93.81
52935;BME280;38802;50.198;19.796;2023-03-21T08:22:35;96121.25;;;7.34;93.89
52935;BME280;38802;50.198;19.796;2023-03-21T08:25:05;96111.95;;;7.38;94.02
52935;BME280;38802;50.198;19.796;2023-03-21T08:27:34;96116.13;;;7.45;94.06
52935;BME280;38802;50.198;19.796;2023-03-21T08:30:03;96114.67;;;7.51;94.16
52935;BME280;38802;50.198;19.796;2023-03-21T08:32:31;96114.08;;;7.56;94.28
52935;BME280;38802;50.198;19.796;2023-03-21T08:35:01;96111.67;;;7.61;94.33
52935;BME280;38802;50.198;19.796;2023-03-21T08:37:29;96112.89;;;7.63;94.31
52935;BME280;38802;50.198;19.796;2023-03-21T08:39:58;96115.04;;;7.70;94.60
52935;BME280;38802;50.198;19.796;2023-03-21T08:42:26;96113.63;;;7.70;94.59
52935;BME280;38802;50.198;19.796;2023-03-21T08:44:54;96113.05;;;7.73;94.67
52935;BME280;38802;50.198;19.796;2023-03-21T08:47:22;96113.69;;;7.69;94.55
52935;BME280;38802;50.198;19.796;2023-03-21T08:49:50;96114.25;;;7.68;94.50
52935;BME280;38802;50.198;19.796;2023-03-21T08:52:18;96115.54;;;7.70;94.66
52935;BME280;38802;50.198;19.796;2023-03-21T08:54:46;96119.12;;;7.71;94.46
52935;BME280;38802;50.198;19.796;2023-03-21T08:57:15;96119.04;;;7.74;94.62
52935;BME280;38802;50.198;19.796;2023-03-21T08:59:43;96119.16;;;7.75;94.60
52935;BME280;38802;50.198;19.796;2023-03-21T09:02:16;96126.08;;;7.77;94.66
52935;BME280;38802;50.198;19.796;2023-03-21T09:04:44;96126.76;;;7.80;94.58
52935;BME280;38802;50.198;19.796;2023-03-21T09:07:12;96128.63;;;7.80;94.50
52935;BME280;38802;50.198;19.796;2023-03-21T09:09:41;96127.48;;;7.84;94.70
52935;BME280;38802;50.198;19.796;2023-03-21T09:12:10;96126.61;;;7.82;94.73
52935;BME280;38802;50.198;19.796;2023-03-21T09:14:38;96131.14;;;7.76;94.70
52935;BME280;38802;50.198;19.796;2023-03-21T09:17:06;96136.10;;;7.70;94.57
52935;BME280;38802;50.198;19.796;2023-03-21T09:19:34;96136.73;;;7.71;94.56
52935;BME280;38802;50.198;19.796;2023-03-21T09:22:02;96135.91;;;7.73;94.70
52935;BME280;38802;50.198;19.796;2023-03-21T09:24:31;96140.82;;;7.72;94.67
52935;BME280;38802;50.198;19.796;2023-03-21T09:26:59;96140.42;;;7.73;94.65
52935;BME280;38802;50.198;19.796;2023-03-21T09:29:28;96137.19;;;7.72;94.71
52935;BME280;38802;50.198;19.796;2023-03-21T09:31:59;96142.27;;;7.68;94.60
52935;BME280;38802;50.198;19.796;2023-03-21T09:34:28;96139.70;;;7.70;94.56
52935;BME280;38802;50.198;19.796;2023-03-21T09:36:56;96140.84;;;7.76;94.66
52935;BME280;38802;50.198;19.796;2023-03-21T09:39:24;96137.11;;;7.80;94.78
52935;BME280;38802;50.198;19.796;2023-03-21T09:47:40;96142.28;;;7.83;94.57
52935;BME280;38802;50.198;19.796;2023-03-21T09:50:19;96144.03;;;7.80;94.62
52935;BME280;38802;50.198;19.796;2023-03-21T09:53:00;96144.66;;;7.71;94.50
52935;BME280;38802;50.198;19.796;2023-03-21T09:55:34;96142.05;;;7.67;94.65
52935;BME280;38802;50.198;19.796;2023-03-21T10:01:02;96139.97;;;7.67;94.51
52935;BME280;38802;50.198;19.796;2023-03-21T10:03:36;96140.11;;;7.72;94.55
52935;BME280;38802;50.198;19.796;2023-03-21T10:06:11;96136.11;;;7.77;94.59
52935;BME280;38802;50.198;19.796;2023-03-21T10:08:45;96132.74;;;7.85;94.82
52935;BME280;38802;50.198;19.796;2023-03-21T10:11:19;96134.71;;;7.97;94.83
52935;BME280;38802;50.198;19.796;2023-03-21T10:14:16;96133.52;;;8.03;94.73
52935;BME280;38802;50.198;19.796;2023-03-21T10:16:51;96131.52;;;8.18;94.80
52935;BME280;38802;50.198;19.796;2023-03-21T10:19:21;96132.67;;;8.24;94.54
52935;BME280;38802;50.198;19.796;2023-03-21T10:21:50;96132.69;;;8.29;94.55
52935;BME280;38802;50.198;19.796;2023-03-21T10:24:30;96133.35;;;8.41;94.58
52935;BME280;38802;50.198;19.796;2023-03-21T10:27:01;96133.04;;;8.44;94.26
52935;BME280;38802;50.198;19.796;2023-03-21T10:29:39;96138.33;;;8.39;94.06
52935;BME280;38802;50.198;19.796;2023-03-21T10:32:12;96139.17;;;8.32;93.71
52935;BME280;38802;50.198;19.796;2023-03-21T10:34:45;96139.83;;;8.25;93.68
52935;BME280;38802;50.198;19.796;2023-03-21T10:37:14;96137.72;;;8.16;93.54
52935;BME280;38802;50.198;19.796;2023-03-21T10:39:48;96142.88;;;8.10;93.42
52935;BME280;38802;50.198;19.796;2023-03-21T10:42:21;96143.94;;;8.03;93.11
52935;BME280;38802;50.198;19.796;2023-03-21T10:44:53;96141.00;;;7.93;93.06
52935;BME280;38802;50.198;19.796;2023-03-21T10:47:26;96143.73;;;7.89;93.16
52935;BME280;38802;50.198;19.796;2023-03-21T10:50:10;96143.61;;;7.88;93.26
52935;BME280;38802;50.198;19.796;2023-03-21T10:52:48;96142.70;;;7.86;93.09
52935;BME280;38802;50.198;19.796;2023-03-21T10:55:29;96144.91;;;7.84;92.92
52935;BME280;38802;50.198;19.796;2023-03-21T10:58:05;96142.57;;;7.83;92.81
52935;BME280;38802;50.198;19.796;2023-03-21T11:00:42;96138.15;;;7.80;92.87
52935;BME280;38802;50.198;19.796;2023-03-21T11:03:24;96137.30;;;7.80;92.76
52935;BME280;38802;50.198;19.796;2023-03-21T11:06:01;96142.60;;;7.81;92.93
52935;BME280;38802;50.198;19.796;2023-03-21T11:08:37;96137.28;;;7.82;93.04
52935;BME280;38802;50.198;19.796;2023-03-21T11:11:08;96138.59;;;7.86;92.97
52935;BME280;38802;50.198;19.796;2023-03-21T11:13:42;96139.76;;;7.86;92.97
52935;BME280;38802;50.198;19.796;2023-03-21T11:16:45;96137.75;;;7.95;93.22
52935;BME280;38802;50.198;19.796;2023-03-21T11:19:19;96143.13;;;8.11;93.27
52935;BME280;38802;50.198;19.796;2023-03-21T11:21:52;96138.04;;;8.24;93.30
52935;BME280;38802;50.198;19.796;2023-03-21T11:24:20;96141.20;;;8.31;93.09
52935;BME280;38802;50.198;19.796;2023-03-21T11:26:48;96137.46;;;8.27;92.77
52935;BME280;38802;50.198;19.796;2023-03-21T11:29:34;96138.94;;;8.21;92.45
52935;BME280;38802;50.198;19.796;2023-03-21T11:32:25;96143.13;;;8.11;92.38
52935;BME280;38802;50.198;19.796;2023-03-21T11:35:13;96143.29;;;8.07;92.54
52935;BME280;38802;50.198;19.796;2023-03-21T11:37:49;96142.29;;;8.06;92.55
52935;BME280;38802;50.198;19.796;2023-03-21T11:42:59;96133.64;;;8.02;92.48
52935;BME280;38802;50.198;19.796;2023-03-21T11:45:31;96133.79;;;8.02;92.61
52935;BME280;38802;50.198;19.796;2023-03-21T11:48:04;96139.96;;;8.02;92.60
52935;BME280;38802;50.198;19.796;2023-03-21T11:50:44;96134.39;;;8.01;92.58
52935;BME280;38802;50.198;19.796;2023-03-21T11:56:05;96136.39;;;7.90;92.51
52935;BME280;38802;50.198;19.796;2023-03-21T12:07:44;96136.06;;;7.68;92.82
52935;BME280;38802;50.198;19.796;2023-03-21T12:15:36;96128.88;;;7.79;92.96
52935;BME280;38802;50.198;19.796;2023-03-21T12:18:25;96125.92;;;7.81;92.83
52935;BME280;38802;50.198;19.796;2023-03-21T12:21:04;96128.04;;;7.88;92.82
52935;BME280;38802;50.198;19.796;2023-03-21T12:40:14;96113.02;;;8.23;92.15
52935;BME280;38802;50.198;19.796;2023-03-21T12:43:01;96109.33;;;8.24;92.10
52935;BME280;38802;50.198;19.796;2023-03-21T12:45:38;96103.06;;;8.27;92.05
52935;BME280;38802;50.198;19.796;2023-03-21T12:50:56;96103.48;;;8.33;91.78
52935;BME280;38802;50.198;19.796;2023-03-21T12:56:12;96103.50;;;8.28;90.85
52935;BME280;38802;50.198;19.796;2023-03-21T12:58:53;96100.44;;;8.19;90.71
52935;BME280;38802;50.198;19.796;2023-03-21T13:01:23;96100.40;;;8.13;90.78
52935;BME280;38802;50.198;19.796;2023-03-21T13:07:00;96099.58;;;8.10;90.74
52935;BME280;38802;50.198;19.796;2023-03-21T13:09:40;96100.20;;;8.09;90.55
52935;BME280;38802;50.198;19.796;2023-03-21T13:12:23;96096.55;;;8.11;90.68
52935;BME280;38802;50.198;19.796;2023-03-21T13:15:16;96095.70;;;8.16;90.76
52935;BME280;38802;50.198;19.796;2023-03-21T13:17:58;96094.13;;;8.21;90.80
52935;BME280;38802;50.198;19.796;2023-03-21T13:20:44;96097.67;;;8.25;90.68
52935;BME280;38802;50.198;19.796;2023-03-21T13:23:14;96098.67;;;8.28;90.67
52935;BME280;38802;50.198;19.796;2023-03-21T13:25:46;96095.88;;;8.28;90.65
52935;BME280;38802;50.198;19.796;2023-03-21T13:28:25;96097.27;;;8.25;90.47
52935;BME280;38802;50.198;19.796;2023-03-21T13:33:48;96096.24;;;8.20;90.43
52935;BME280;38802;50.198;19.796;2023-03-21T13:36:25;96096.69;;;8.19;90.34
52935;BME280;38802;50.198;19.796;2023-03-21T13:39:00;96098.00;;;8.15;90.22
52935;BME280;38802;50.198;19.796;2023-03-21T13:41:35;96100.41;;;8.15;90.45
52935;BME280;38802;50.198;19.796;2023-03-21T13:47:00;96095.66;;;8.14;90.17
52935;BME280;38802;50.198;19.796;2023-03-21T13:49:31;96090.34;;;8.09;90.27
52935;BME280;38802;50.198;19.796;2023-03-21T13:52:23;96097.73;;;8.07;90.47
52935;BME280;38802;50.198;19.796;2023-03-21T13:54:54;96097.55;;;8.03;90.42
52935;BME280;38802;50.198;19.796;2023-03-21T14:00:27;96091.80;;;7.97;90.44
52935;BME280;38802;50.198;19.796;2023-03-21T14:03:06;96094.42;;;7.98;90.40
52935;BME280;38802;50.198;19.796;2023-03-21T14:05:37;96093.14;;;8.00;90.43
52935;BME280;38802;50.198;19.796;2023-03-21T14:08:08;96096.42;;;7.97;90.38
52935;BME280;38802;50.198;19.796;2023-03-21T14:10:55;96098.27;;;7.94;90.45
52935;BME280;38802;50.198;19.796;2023-03-21T14:13:26;96096.06;;;7.91;90.38
52935;BME280;38802;50.198;19.796;2023-03-21T14:15:59;96099.91;;;7.85;90.37
52935;BME280;38802;50.198;19.796;2023-03-21T14:18:44;96095.17;;;7.81;90.40
52935;BME280;38802;50.198;19.796;2023-03-21T14:21:27;96095.23;;;7.76;90.37
52935;BME280;38802;50.198;19.796;2023-03-21T14:24:10;96095.67;;;7.74;90.40
52935;BME280;38802;50.198;19.796;2023-03-21T14:26:42;96092.95;;;7.71;90.54
52935;BME280;38802;50.198;19.796;2023-03-21T14:29:24;96090.96;;;7.70;90.50
52935;BME280;38802;50.198;19.796;2023-03-21T14:31:55;96088.19;;;7.68;90.54
52935;BME280;38802;50.198;19.796;2023-03-21T14:34:25;96087.37;;;7.67;90.50
52935;BME280;38802;50.198;19.796;2023-03-21T14:36:54;96087.58;;;7.67;90.60
52935;BME280;38802;50.198;19.796;2023-03-21T14:39:30;96088.81;;;7.69;90.54
52935;BME280;38802;50.198;19.796;2023-03-21T14:42:10;96087.98;;;7.75;90.66
52935;BME280;38802;50.198;19.796;2023-03-21T14:44:41;96087.59;;;7.83;90.70
52935;BME280;38802;50.198;19.796;2023-03-21T14:47:25;96086.71;;;7.88;90.44
52935;BME280;38802;50.198;19.796;2023-03-21T14:49:55;96081.55;;;7.88;90.40
52935;BME280;38802;50.198;19.796;2023-03-21T14:52:30;96079.14;;;7.88;90.41
52935;BME280;38802;50.198;19.796;2023-03-21T14:55:00;96081.45;;;7.87;90.38
52935;BME280;38802;50.198;19.796;2023-03-21T14:57:31;96081.57;;;7.87;90.35
52935;BME280;38802;50.198;19.796;2023-03-21T15:00:03;96079.64;;;7.88;90.24
52935;BME280;38802;50.198;19.796;2023-03-21T15:02:41;96085.87;;;7.90;90.31
52935;BME280;38802;50.198;19.796;2023-03-21T15:05:17;96080.05;;;7.89;90.16
52935;BME280;38802;50.198;19.796;2023-03-21T15:07:59;96079.71;;;7.89;90.22
52935;BME280;38802;50.198;19.796;2023-03-21T15:10:30;96081.26;;;7.87;90.19
52935;BME280;38802;50.198;19.796;2023-03-21T15:13:00;96078.94;;;7.85;90.33
52935;BME280;38802;50.198;19.796;2023-03-21T15:15:30;96074.55;;;7.82;90.20
52935;BME280;38802;50.198;19.796;2023-03-21T15:18:03;96072.02;;;7.81;90.21
52935;BME280;38802;50.198;19.796;2023-03-21T15:20:35;96072.69;;;7.81;90.17